首页
METAR-TAF:

METAR-TAF

机场 :

Pinedale, 怀俄明州, 美国

纬度: 42-47-43N, 经度: 109-48-25W, 海拔: 2160米

当前天气观测

该预报发布于32分钟前的05:15 UTC
风速4节,风向西北
温度 11°C
湿度 58%
气压 1021 hPa
能見度: 16.1公里
天空无云

METAR: KPNA 070515Z AUTO 31004KT 10SM CLR 11/03 A3014 RMK AO2

时间: 23:47 (05:47 UTC)

预报

该预报发布于24分钟前的05:23 UTC
预报有效从07日的 06点(UTC)到 08日的 06点(UTC)
风速8节,风向西转西北
能見度: 10公里
天空无云
从 07日的 0900点(UTC)
风速4节,风向多变
能見度: 10公里
多云层高于12000英尺
从 07日的 1900点(UTC)
风速11节,风向西南,有时为20节阵风
能見度: 10公里
散云层高于12000英尺
从 07日的 2100点(UTC)
风速23节,风向西转西南,有时为35节阵风
能見度: 10公里
散云层高于12000英尺
从 08日的 0400点(UTC)
风速12节,风向西转西北,有时为18节阵风
能見度: 10公里
天空无云

TAF: KPNA 070523Z 0706/0806 29008KT P6SM SKC FM070900 VRB04KT P6SM BKN120 FM071900 22011G20KT P6SM SCT120 FM072100 25023G35KT P6SM SCT120 FM080400 30012G18KT P6SM SKC

超过4000个机场的气象观测和天气预报(METAR&TAF报告)。

可查询的气象台以黄色和红色小点在地图上表示。

将鼠标移到小点上方,可查看气象台名称。

然后点击查看天气观测和预报。

如需切换地图:点击带黑十字的绿色按钮放大地图;点击带横线的绿色按钮缩小地图;或者点击绿色箭头查看邻近地区的地图。


METAR-TAF: